createdAt,value
2023-04-01T00:00:27.013Z,6.36
2023-04-01T00:02:54.706Z,6.35
2023-04-01T00:05:25.333Z,6.37
2023-04-01T00:07:53.358Z,6.37
2023-04-01T00:10:21.773Z,6.39
2023-04-01T00:12:57.932Z,6.37
2023-04-01T00:15:36.652Z,6.38
2023-04-01T00:18:04.774Z,6.35
2023-04-01T00:20:32.718Z,6.34
2023-04-01T00:23:00.956Z,6.39
2023-04-01T00:25:43.442Z,6.39
2023-04-01T00:28:20.813Z,6.45
2023-04-01T00:30:49.089Z,6.44
2023-04-01T00:33:36.049Z,6.47
2023-04-01T00:36:17.937Z,6.45
2023-04-01T00:39:10.596Z,6.44
2023-04-01T00:41:52.138Z,6.38
2023-04-01T00:44:24.449Z,6.36
2023-04-01T00:46:57.060Z,6.26
2023-04-01T00:49:56.060Z,6.37
2023-04-01T00:52:28.266Z,6.34
2023-04-01T00:55:03.934Z,6.29
2023-04-01T00:57:38.790Z,6.32
2023-04-01T01:00:15.837Z,6.26
2023-04-01T01:03:03.826Z,6.22
2023-04-01T01:06:18.863Z,6.19
2023-04-01T01:09:11.490Z,6.20
2023-04-01T01:11:53.879Z,6.26
2023-04-01T01:14:41.166Z,6.22
2023-04-01T01:17:36.489Z,6.17
2023-04-01T01:20:27.355Z,6.14
2023-04-01T01:23:58.433Z,6.23
2023-04-01T01:27:24.456Z,6.23
2023-04-01T01:30:19.995Z,6.19
2023-04-01T01:33:08.222Z,6.21
2023-04-01T01:35:56.083Z,6.18
2023-04-01T01:38:29.086Z,6.20
2023-04-01T01:41:08.310Z,6.10
2023-04-01T01:43:46.269Z,6.13
2023-04-01T01:46:22.818Z,6.14
2023-04-01T01:48:53.873Z,6.12
2023-04-01T01:51:24.568Z,6.11
2023-04-01T01:54:07.019Z,6.11
2023-04-01T01:56:58.073Z,6.16
2023-04-01T01:59:29.531Z,6.19
2023-04-01T02:05:47.833Z,6.26
2023-04-01T02:08:24.438Z,6.31
2023-04-01T02:11:13.473Z,6.30
2023-04-01T02:17:58.907Z,6.34
2023-04-01T02:20:34.192Z,6.30
2023-04-01T02:23:14.466Z,6.33
2023-04-01T02:25:45.446Z,6.27
2023-04-01T02:28:17.261Z,6.33
2023-04-01T02:30:56.455Z,6.29
2023-04-01T02:33:26.795Z,6.37
2023-04-01T02:35:58.449Z,6.40
2023-04-01T02:38:26.984Z,6.40
2023-04-01T02:41:23.842Z,6.42
2023-04-01T02:43:51.463Z,6.35
2023-04-01T02:46:31.957Z,6.37
2023-04-01T02:49:00.284Z,6.36
2023-04-01T02:51:32.695Z,6.37
2023-04-01T02:54:12.109Z,6.38
2023-04-01T02:57:03.698Z,6.32
2023-04-01T02:59:42.958Z,6.23
2023-04-01T03:02:14.994Z,6.13
2023-04-01T03:04:45.034Z,6.17
2023-04-01T03:07:16.303Z,6.23
2023-04-01T03:09:45.782Z,6.24
2023-04-01T03:12:14.780Z,6.13
2023-04-01T03:14:50.634Z,6.14
2023-04-01T03:17:21.872Z,6.16
2023-04-01T03:19:49.842Z,6.21
2023-04-01T03:22:18.559Z,6.21
2023-04-01T03:24:50.288Z,6.14
2023-04-01T03:27:19.135Z,6.10
2023-04-01T03:29:47.253Z,6.15
2023-04-01T03:32:17.784Z,6.12
2023-04-01T03:34:54.618Z,5.95
2023-04-01T03:37:24.884Z,6.01
2023-04-01T03:39:53.097Z,6.08
2023-04-01T03:42:21.244Z,6.04
2023-04-01T03:44:55.794Z,6.12
2023-04-01T03:47:30.676Z,6.04
2023-04-01T03:50:00.161Z,6.02
2023-04-01T03:52:32.302Z,6.03
2023-04-01T03:55:01.077Z,6.02
2023-04-01T03:57:29.978Z,6.01
2023-04-01T04:00:02.098Z,6.02
2023-04-01T04:02:31.502Z,5.95
2023-04-01T04:04:59.829Z,6.00
2023-04-01T04:08:19.195Z,6.05
2023-04-01T04:10:47.588Z,6.04
2023-04-01T04:13:16.226Z,6.01
2023-04-01T04:15:51.357Z,5.98
2023-04-01T04:18:23.220Z,6.08
2023-04-01T04:20:52.317Z,6.07
2023-04-01T04:23:54.892Z,6.01
2023-04-01T04:26:23.395Z,5.99
2023-04-01T04:29:06.900Z,5.94
2023-04-01T04:32:08.088Z,6.00
2023-04-01T04:34:38.082Z,5.91
2023-04-01T04:37:06.299Z,5.89
2023-04-01T04:39:46.840Z,5.90
2023-04-01T04:42:14.464Z,5.82
2023-04-01T04:44:43.788Z,5.84
2023-04-01T04:47:15.154Z,5.77
2023-04-01T04:49:42.821Z,5.74
2023-04-01T04:53:14.984Z,5.76
2023-04-01T04:56:14.462Z,5.64
2023-04-01T04:58:50.406Z,5.48
2023-04-01T05:01:23.035Z,5.40
2023-04-01T05:03:52.944Z,5.38
2023-04-01T05:06:48.628Z,5.29
2023-04-01T05:09:18.356Z,5.25
2023-04-01T05:11:55.099Z,5.27
2023-04-01T05:14:26.905Z,5.19
2023-04-01T05:17:12.950Z,5.14
2023-04-01T05:19:41.485Z,5.13
2023-04-01T05:22:13.399Z,5.09
2023-04-01T05:24:43.114Z,5.11
2023-04-01T05:27:13.344Z,5.13
2023-04-01T05:29:44.037Z,5.16
2023-04-01T05:32:36.330Z,5.04
2023-04-01T05:35:11.307Z,5.12
2023-04-01T05:38:04.652Z,5.08
2023-04-01T05:40:47.709Z,5.08
2023-04-01T05:43:25.854Z,5.13
2023-04-01T05:45:55.397Z,5.04
2023-04-01T05:48:44.089Z,5.20
2023-04-01T05:51:16.090Z,5.20
2023-04-01T05:53:46.775Z,5.17
2023-04-01T05:56:15.579Z,5.22
2023-04-01T05:58:57.470Z,5.28
2023-04-01T06:01:26.167Z,5.31
2023-04-01T06:03:55.756Z,5.37
2023-04-01T06:10:19.302Z,5.58
2023-04-01T06:13:03.523Z,5.62
2023-04-01T06:15:41.510Z,5.60
2023-04-01T06:19:22.966Z,5.67
2023-04-01T06:26:48.441Z,5.80
2023-04-01T06:30:15.903Z,5.95
2023-04-01T06:33:34.956Z,6.04
2023-04-01T06:36:35.097Z,6.10
2023-04-01T06:40:40.847Z,6.15
2023-04-01T06:43:26.955Z,6.34
2023-04-01T06:50:59.296Z,6.75
2023-04-01T06:54:48.999Z,6.90
2023-04-01T06:58:06.448Z,7.07
2023-04-01T07:00:38.067Z,7.14
2023-04-01T07:03:25.674Z,7.15
2023-04-01T07:05:55.249Z,6.99
2023-04-01T07:08:27.677Z,6.84
2023-04-01T07:11:07.524Z,6.92
2023-04-01T07:14:08.143Z,7.11
2023-04-01T07:16:45.233Z,7.09
2023-04-01T07:19:34.760Z,7.15
2023-04-01T07:22:15.806Z,7.18
2023-04-01T07:25:26.568Z,7.13
2023-04-01T07:28:19.140Z,7.07
2023-04-01T07:34:23.711Z,7.09
2023-04-01T07:37:15.187Z,7.17
2023-04-01T07:40:13.889Z,7.10
2023-04-01T07:43:20.579Z,7.08
2023-04-01T07:46:43.316Z,7.08
2023-04-01T07:49:28.917Z,7.06
2023-04-01T07:55:11.940Z,7.04
2023-04-01T07:57:54.117Z,7.02
2023-04-01T08:00:31.633Z,7.01
2023-04-01T08:03:35.090Z,6.98
2023-04-01T08:06:38.304Z,6.94
2023-04-01T08:09:42.300Z,6.88
2023-04-01T08:13:11.503Z,6.90
2023-04-01T08:16:33.713Z,6.86
2023-04-01T08:19:10.898Z,6.93
2023-04-01T08:21:54.773Z,6.92
2023-04-01T08:24:47.091Z,6.86
2023-04-01T08:27:39.229Z,6.94
2023-04-01T08:30:29.817Z,6.86
2023-04-01T08:33:11.624Z,6.83
2023-04-01T08:36:00.333Z,6.92
2023-04-01T08:38:34.705Z,6.93
2023-04-01T08:41:10.134Z,6.94
2023-04-01T08:44:37.565Z,6.96
2023-04-01T08:47:41.267Z,6.95
2023-04-01T08:50:21.059Z,6.95
2023-04-01T08:53:15.154Z,6.96
2023-04-01T08:56:11.792Z,6.94
2023-04-01T08:59:19.168Z,6.92
2023-04-01T09:01:59.327Z,6.95
2023-04-01T09:05:05.115Z,7.02
2023-04-01T09:07:43.610Z,7.05
2023-04-01T09:10:39.840Z,7.04
2023-04-01T09:13:40.779Z,6.97
2023-04-01T09:16:21.136Z,6.96
2023-04-01T09:18:48.670Z,6.97
2023-04-01T09:21:49.837Z,6.90
2023-04-01T09:24:44.068Z,6.72
2023-04-01T09:27:28.376Z,6.81
2023-04-01T09:30:32.784Z,6.81
2023-04-01T09:33:01.633Z,6.84
2023-04-01T09:35:33.037Z,6.82
2023-04-01T09:38:29.857Z,6.79
2023-04-01T09:41:32.006Z,6.81
2023-04-01T09:44:33.143Z,6.82
2023-04-01T09:47:48.463Z,6.94
2023-04-01T09:50:47.041Z,6.99
2023-04-01T09:53:26.805Z,6.95
2023-04-01T09:56:18.406Z,6.87
2023-04-01T09:59:33.151Z,6.81
2023-04-01T10:02:55.983Z,6.76
2023-04-01T10:05:34.960Z,6.77
2023-04-01T10:08:28.823Z,6.72
2023-04-01T10:11:24.579Z,6.76
2023-04-01T10:14:11.810Z,6.70
2023-04-01T10:17:01.674Z,6.65
2023-04-01T10:19:40.635Z,6.60
2023-04-01T10:22:30.344Z,6.54
2023-04-01T10:25:26.844Z,6.59
2023-04-01T10:28:13.785Z,6.58
2023-04-01T10:31:28.194Z,6.62
2023-04-01T10:34:04.377Z,6.70
2023-04-01T10:36:40.368Z,6.71
2023-04-01T10:39:34.006Z,6.72
2023-04-01T10:42:35.070Z,6.70
2023-04-01T10:45:47.936Z,6.73
2023-04-01T10:48:45.253Z,6.80
2023-04-01T10:51:19.104Z,6.73
2023-04-01T10:54:22.156Z,6.69
2023-04-01T10:57:54.428Z,6.63
2023-04-01T11:00:53.091Z,6.73
2023-04-01T11:04:07.260Z,6.80
2023-04-01T11:06:55.326Z,6.87
2023-04-01T11:09:22.098Z,6.94
2023-04-01T11:12:15.411Z,7.01
2023-04-01T11:15:04.032Z,7.02
2023-04-01T11:18:01.979Z,6.98
2023-04-01T11:20:34.655Z,7.01
2023-04-01T11:23:01.346Z,7.09
2023-04-01T11:26:05.703Z,7.05
2023-04-01T11:29:13.665Z,7.13
2023-04-01T11:32:18.913Z,7.16
2023-04-01T11:34:56.356Z,7.15
2023-04-01T11:37:42.760Z,7.10
2023-04-01T11:41:01.438Z,7.15
2023-04-01T11:44:13.860Z,7.21
2023-04-01T11:47:25.684Z,7.17
2023-04-01T11:50:01.052Z,7.19
2023-04-01T11:53:00.167Z,7.20
2023-04-01T11:55:35.081Z,7.18
2023-04-01T11:58:14.207Z,7.20
2023-04-01T12:00:55.982Z,7.26
2023-04-01T12:03:31.745Z,7.25
2023-04-01T12:06:36.409Z,7.33
2023-04-01T12:09:41.315Z,7.38
2023-04-01T12:12:58.006Z,7.40
2023-04-01T12:15:42.423Z,7.37
2023-04-01T12:18:09.030Z,7.33
2023-04-01T12:20:50.281Z,7.36
2023-04-01T12:23:35.882Z,7.36
2023-04-01T12:26:17.806Z,7.36
2023-04-01T12:29:29.347Z,7.39
2023-04-01T12:32:17.422Z,7.46
2023-04-01T12:35:26.260Z,7.39
2023-04-01T12:38:05.207Z,7.44
2023-04-01T12:40:41.009Z,7.50
2023-04-01T12:43:54.405Z,7.55
2023-04-01T12:47:04.166Z,7.57
2023-04-01T12:49:56.734Z,7.59
2023-04-01T12:52:44.769Z,7.63
2023-04-01T12:55:38.933Z,7.68
2023-04-01T12:58:43.183Z,7.71
2023-04-01T13:01:28.796Z,7.81
2023-04-01T13:04:22.872Z,7.88
2023-04-01T13:06:58.519Z,7.84
2023-04-01T13:09:51.580Z,7.82
2023-04-01T13:12:52.617Z,7.74
2023-04-01T13:15:54.758Z,7.64
2023-04-01T13:18:33.695Z,7.57
2023-04-01T13:21:31.438Z,7.51
2023-04-01T13:24:19.782Z,7.52
2023-04-01T13:27:01.304Z,7.51
2023-04-01T13:29:46.274Z,7.54
2023-04-01T13:32:42.434Z,7.58
2023-04-01T13:36:01.048Z,7.61
2023-04-01T13:38:59.806Z,7.63
2023-04-01T13:42:03.568Z,7.64
2023-04-01T13:44:52.636Z,7.73
2023-04-01T13:47:25.543Z,7.77
2023-04-01T13:50:29.666Z,7.88
2023-04-01T13:53:08.277Z,7.94
2023-04-01T13:55:51.982Z,7.88
2023-04-01T13:58:47.787Z,7.94
2023-04-01T14:01:31.742Z,8.00
2023-04-01T14:04:28.873Z,8.00
2023-04-01T14:07:01.943Z,7.98
2023-04-01T14:10:06.676Z,7.96
2023-04-01T14:12:52.722Z,7.96
2023-04-01T14:15:50.668Z,7.97
2023-04-01T14:18:37.536Z,8.03
2023-04-01T14:21:35.646Z,8.12
2023-04-01T14:24:33.427Z,8.20
2023-04-01T14:27:13.635Z,8.12
2023-04-01T14:30:18.015Z,8.07
2023-04-01T14:32:50.699Z,8.11
2023-04-01T14:35:35.306Z,8.05
2023-04-01T14:38:26.065Z,8.01
2023-04-01T14:41:17.967Z,8.05
2023-04-01T14:43:53.719Z,8.08
2023-04-01T14:47:03.739Z,8.16
2023-04-01T14:49:39.448Z,8.17
2023-04-01T14:52:24.108Z,8.33
2023-04-01T14:54:52.935Z,8.25
2023-04-01T14:57:30.046Z,8.20
2023-04-01T15:00:05.805Z,8.19
2023-04-01T15:03:31.158Z,8.14
2023-04-01T15:06:16.533Z,8.14
2023-04-01T15:08:58.454Z,8.16
2023-04-01T15:11:49.916Z,8.12
2023-04-01T15:14:24.852Z,8.16
2023-04-01T15:17:00.760Z,8.14
2023-04-01T15:19:48.708Z,8.17
2023-04-01T15:22:56.689Z,8.20
2023-04-01T15:26:00.901Z,8.29
2023-04-01T15:28:46.237Z,8.36
2023-04-01T15:31:22.781Z,8.37
2023-04-01T15:33:58.827Z,8.39
2023-04-01T15:36:34.589Z,8.34
2023-04-01T15:39:09.632Z,8.31
2023-04-01T15:41:46.765Z,8.30
2023-04-01T15:45:04.648Z,8.30
2023-04-01T15:47:38.907Z,8.26
2023-04-01T15:50:24.422Z,8.28
2023-04-01T15:53:13.789Z,8.26
2023-04-01T15:55:58.347Z,8.21
2023-04-01T15:58:27.974Z,8.19
2023-04-01T16:01:29.573Z,8.13
2023-04-01T16:04:15.154Z,8.09
2023-04-01T16:06:44.719Z,8.10
2023-04-01T16:09:35.487Z,8.06
2023-04-01T16:12:17.293Z,7.99
2023-04-01T16:14:59.268Z,8.00
2023-04-01T16:17:41.601Z,7.99
2023-04-01T16:20:19.078Z,7.91
2023-04-01T16:23:14.625Z,7.90
2023-04-01T16:25:46.452Z,7.86
2023-04-01T16:28:31.675Z,7.87
2023-04-01T16:31:07.094Z,7.86
2023-04-01T16:33:41.466Z,7.84
2023-04-01T16:36:29.414Z,7.83
2023-04-01T16:39:14.970Z,7.84
2023-04-01T16:41:59.109Z,7.83
2023-04-01T16:44:28.266Z,7.79
2023-04-01T16:47:11.598Z,7.76
2023-04-01T16:49:59.989Z,7.75
2023-04-01T16:52:44.483Z,7.72
2023-04-01T16:55:20.588Z,7.67
2023-04-01T16:58:02.009Z,7.60
2023-04-01T17:00:30.519Z,7.56
2023-04-01T17:03:10.957Z,7.50
2023-04-01T17:05:49.933Z,7.46
2023-04-01T17:08:32.302Z,7.42
2023-04-01T17:11:18.472Z,7.36
2023-04-01T17:13:55.918Z,7.35
2023-04-01T17:16:44.148Z,7.31
2023-04-01T17:19:41.654Z,7.28
2023-04-01T17:22:22.808Z,7.25
2023-04-01T17:25:11.308Z,7.24
2023-04-01T17:27:49.518Z,7.23
2023-04-01T17:30:34.637Z,7.23
2023-04-01T17:33:28.940Z,7.19
2023-04-01T17:35:55.566Z,7.14
2023-04-01T17:39:04.061Z,7.12
2023-04-01T17:41:46.819Z,7.05
2023-04-01T17:44:30.474Z,7.04
2023-04-01T17:47:42.699Z,7.03
2023-04-01T17:50:23.317Z,7.01
2023-04-01T17:53:13.284Z,7.04
2023-04-01T17:55:55.072Z,7.06
2023-04-01T17:58:41.987Z,7.06
2023-04-01T18:01:21.123Z,7.06
2023-04-01T18:04:06.078Z,7.06
2023-04-01T18:06:57.575Z,7.09
2023-04-01T18:09:50.905Z,7.06
2023-04-01T18:12:46.235Z,7.11
2023-04-01T18:15:30.556Z,7.09
2023-04-01T18:18:00.078Z,7.08
2023-04-01T18:20:32.493Z,7.04
2023-04-01T18:23:11.514Z,7.07
2023-04-01T18:25:45.159Z,7.02
2023-04-01T18:28:36.788Z,6.99
2023-04-01T18:31:03.421Z,7.00
2023-04-01T18:33:43.790Z,6.96
2023-04-01T18:36:43.103Z,6.97
2023-04-01T18:39:31.798Z,6.97
2023-04-01T18:42:17.151Z,6.95
2023-04-01T18:44:49.855Z,6.96
2023-04-01T18:47:51.601Z,6.92
2023-04-01T18:50:31.204Z,6.87
2023-04-01T18:53:16.556Z,6.81
2023-04-01T18:55:51.498Z,6.80
2023-04-01T18:58:23.338Z,6.79
2023-04-01T19:01:13.052Z,6.76
2023-04-01T19:04:08.795Z,6.76
2023-04-01T19:06:55.976Z,6.76
2023-04-01T19:09:30.514Z,6.75
2023-04-01T19:12:14.775Z,6.75
2023-04-01T19:15:20.967Z,6.76
2023-04-01T19:18:18.171Z,6.78
2023-04-01T19:20:57.868Z,6.75
2023-04-01T19:24:02.408Z,6.76
2023-04-01T19:27:00.145Z,6.75
2023-04-01T19:29:56.393Z,6.73
2023-04-01T19:33:02.065Z,6.79
2023-04-01T19:35:52.772Z,6.85
2023-04-01T19:38:36.620Z,6.90
2023-04-01T19:41:28.631Z,6.88
2023-04-01T19:44:07.575Z,6.80
2023-04-01T19:47:31.742Z,6.71
2023-04-01T19:50:19.512Z,6.66
2023-04-01T19:52:49.495Z,6.62
2023-04-01T19:55:44.048Z,6.58
2023-04-01T19:58:34.040Z,6.53
2023-04-01T20:01:01.538Z,6.49
2023-04-01T20:03:36.285Z,6.52
2023-04-01T20:06:07.698Z,6.46
2023-04-01T20:08:42.013Z,6.47
2023-04-01T20:11:36.192Z,6.44
2023-04-01T20:14:41.060Z,6.39
2023-04-01T20:17:08.088Z,6.37
2023-04-01T20:19:40.817Z,6.36
2023-04-01T20:22:54.112Z,6.38
2023-04-01T20:25:27.844Z,6.43
2023-04-01T20:28:15.645Z,6.49
2023-04-01T20:30:42.188Z,6.45
2023-04-01T20:33:21.955Z,6.44
2023-04-01T20:36:23.760Z,6.46
2023-04-01T20:38:53.343Z,6.45
2023-04-01T20:41:51.536Z,6.41
2023-04-01T20:44:28.626Z,6.41
2023-04-01T20:47:20.234Z,6.38
2023-04-01T20:50:16.518Z,6.39
2023-04-01T20:52:54.576Z,6.38
2023-04-01T20:55:47.502Z,6.41
2023-04-01T20:58:20.951Z,6.36
2023-04-01T21:00:59.170Z,6.32
2023-04-01T21:03:56.802Z,6.29
2023-04-01T21:06:29.205Z,6.25
2023-04-01T21:09:18.221Z,6.25
2023-04-01T21:12:01.081Z,6.26
2023-04-01T21:14:48.374Z,6.30
2023-04-01T21:17:43.398Z,6.31
2023-04-01T21:20:28.394Z,6.29
2023-04-01T21:23:09.753Z,6.28
2023-04-01T21:25:48.458Z,6.28
2023-04-01T21:28:22.388Z,6.21
2023-04-01T21:31:11.012Z,6.19
2023-04-01T21:33:52.953Z,6.19
2023-04-01T21:36:49.651Z,6.21
2023-04-01T21:39:16.193Z,6.21
2023-04-01T21:42:03.845Z,6.22
2023-04-01T21:45:02.700Z,6.18
2023-04-01T21:47:50.844Z,6.23
2023-04-01T21:50:43.548Z,6.16
2023-04-01T21:53:19.553Z,6.16
2023-04-01T21:56:24.262Z,6.14
2023-04-01T21:59:12.420Z,6.09
2023-04-01T22:01:57.304Z,6.09
2023-04-01T22:04:33.005Z,6.07
2023-04-01T22:07:20.293Z,6.04
2023-04-01T22:10:22.282Z,6.02
2023-04-01T22:13:18.080Z,6.02
2023-04-01T22:16:11.061Z,6.00
2023-04-01T22:19:14.310Z,5.98
2023-04-01T22:22:02.527Z,5.98
2023-04-01T22:24:36.269Z,5.98
2023-04-01T22:27:24.485Z,6.02
2023-04-01T22:30:10.360Z,6.02
2023-04-01T22:32:55.984Z,5.99
2023-04-01T22:35:35.023Z,5.96
2023-04-01T22:38:33.885Z,5.89
2023-04-01T22:41:13.448Z,5.85
2023-04-01T22:43:42.747Z,5.81
2023-04-01T22:46:38.234Z,5.74
2023-04-01T22:49:19.006Z,5.75
2023-04-01T22:52:10.109Z,5.73
2023-04-01T22:54:48.264Z,5.71
2023-04-01T22:57:36.516Z,5.68
2023-04-01T23:00:21.223Z,5.73
2023-04-01T23:03:27.673Z,5.71
2023-04-01T23:06:02.231Z,5.73
2023-04-01T23:08:37.843Z,5.73
2023-04-01T23:11:14.283Z,5.74
2023-04-01T23:13:49.364Z,5.72
2023-04-01T23:16:19.124Z,5.72
2023-04-01T23:18:51.050Z,5.73
2023-04-01T23:21:32.898Z,5.72
2023-04-01T23:24:11.511Z,5.71
2023-04-01T23:26:56.327Z,5.67
2023-04-01T23:29:23.859Z,5.65
2023-04-01T23:32:02.095Z,5.61
2023-04-01T23:34:30.982Z,5.64
2023-04-01T23:37:01.857Z,5.61
2023-04-01T23:39:28.927Z,5.64
2023-04-01T23:42:00.838Z,5.60
2023-04-01T23:44:29.995Z,5.66
2023-04-01T23:46:58.043Z,5.69
2023-04-01T23:49:50.462Z,5.71
2023-04-01T23:52:24.236Z,5.73
2023-04-01T23:55:04.248Z,5.74
2023-04-01T23:57:33.390Z,5.69
